METAR ET TAF INFORMATION
METAR FOR KDLO
ADDS - METARS form results

(1944 UTC 20 January 2019)
Data provider http://aviationweather.gov/metar/data/
 
METAR text: KDLO 201935Z AUTO 29004KT 10SM CLR 14/09 A3013 RMK AO2 T01410088
Conditions at: KDLO (DELANO , CA, US) observed 1935 UTC 20 January 2019
Temperature: 14.1°C (57°F)
Dewpoint: 8.8°C (48°F) [RH = 70%]
Pressure (altimeter): 30.13 inches Hg (1020.4 mb)
Winds: from the WNW (290 degrees) at 5 MPH (4 knots; 2.1 m/s)
Visibility: 10 or more miles (16+ km)
Ceiling: at least 12,000 feet AGL
Clouds: sky clear below 12,000 feet AGL
Weather: automated observation with no human augmentation;
there may or may not be significant weather present at this time

METAR text: KDLO 201915Z AUTO 29003KT 10SM CLR 14/09 A3014 RMK AO2 T01390088
Conditions at: KDLO (DELANO , CA, US) observed 1915 UTC 20 January 2019
Temperature: 13.9°C (57°F)
Dewpoint: 8.8°C (48°F) [RH = 71%]
Pressure (altimeter): 30.14 inches Hg (1020.7 mb)
Winds: from the WNW (290 degrees) at 3 MPH (3 knots; 1.5 m/s)
Visibility: 10 or more miles (16+ km)
Ceiling: at least 12,000 feet AGL
Clouds: sky clear below 12,000 feet AGL
Weather: automated observation with no human augmentation;
there may or may not be significant weather present at this time

METAR text: KDLO 201855Z AUTO 00000KT 10SM CLR 13/09 A3013 RMK AO2 T01320088
Conditions at: KDLO (DELANO , CA, US) observed 1855 UTC 20 January 2019
Temperature: 13.2°C (56°F)
Dewpoint: 8.8°C (48°F) [RH = 75%]
Pressure (altimeter): 30.13 inches Hg (1020.4 mb)
Winds: calm
Visibility: 10 or more miles (16+ km)
Ceiling: at least 12,000 feet AGL
Clouds: sky clear below 12,000 feet AGL
Weather: automated observation with no human augmentation;
there may or may not be significant weather present at this time

 AÉROPORT DE AÉROPORT

 INFORMATIONS DE PISTE
Piste 14 Longueur de la piste 5650 ft Largeur de la piste 75 ft
Élévation de la piste 313 ft Seuil de la piste déplacés 1640 ft Runway heading 159
Piste 32 Longueur de la piste 5650 ft Largeur de la piste 75 ft
Élévation de la piste 311 ft Seuil de la piste déplacés 0 ft Runway heading 339

 AÉROPORT FRÉQUENCES
Type A/D Nom BAKERSFIEL Féquence 118.9 MHZ
Type AWOS Nom AWOS 3 Féquence 119.55 MHZ
Type UNIC Nom CTAF/UNICO Féquence 122.8 MHZ

 SIDA DE NAVIGATION



Powered by Virtual Airlines Manager [v2.6.2]